createdAt,value
2022-08-26T00:01:54.529Z,22.08
2022-08-26T00:04:23.832Z,22.10
2022-08-26T00:06:51.468Z,22.05
2022-08-26T00:09:18.724Z,21.99
2022-08-26T00:11:46.506Z,21.81
2022-08-26T00:14:15.392Z,21.92
2022-08-26T00:16:47.136Z,21.81
2022-08-26T00:19:18.798Z,21.91
2022-08-26T00:21:48.729Z,21.90
2022-08-26T00:24:18.217Z,21.88
2022-08-26T00:26:45.414Z,21.92
2022-08-26T00:29:13.614Z,21.84
2022-08-26T00:31:42.445Z,21.83
2022-08-26T00:34:11.336Z,21.81
2022-08-26T00:36:40.761Z,21.92
2022-08-26T00:39:08.555Z,21.83
2022-08-26T00:41:39.192Z,21.75
2022-08-26T00:44:07.106Z,21.83
2022-08-26T00:46:37.194Z,21.81
2022-08-26T00:49:32.644Z,21.82
2022-08-26T00:52:03.522Z,21.75
2022-08-26T00:54:36.898Z,21.78
2022-08-26T00:57:16.424Z,21.73
2022-08-26T00:59:47.090Z,21.73
2022-08-26T01:02:20.808Z,21.66
2022-08-26T01:04:54.286Z,21.62
2022-08-26T01:07:25.229Z,21.67
2022-08-26T01:09:52.199Z,21.54
2022-08-26T01:12:21.978Z,21.66
2022-08-26T01:14:49.592Z,21.66
2022-08-26T01:17:17.318Z,21.62
2022-08-26T01:19:57.540Z,21.44
2022-08-26T01:22:34.518Z,21.41
2022-08-26T01:25:03.712Z,21.56
2022-08-26T01:27:32.910Z,21.44
2022-08-26T01:30:02.384Z,21.47
2022-08-26T01:32:31.959Z,21.47
2022-08-26T01:34:59.389Z,21.40
2022-08-26T01:37:32.663Z,21.32
2022-08-26T01:39:59.603Z,21.33
2022-08-26T01:42:27.505Z,21.27
2022-08-26T01:45:09.716Z,21.31
2022-08-26T01:47:38.510Z,21.17
2022-08-26T01:50:11.458Z,21.10
2022-08-26T01:52:41.470Z,21.19
2022-08-26T01:55:11.531Z,21.18
2022-08-26T01:57:39.401Z,21.09
2022-08-26T02:00:11.589Z,20.99
2022-08-26T02:02:45.277Z,20.99
2022-08-26T02:05:18.789Z,20.95
2022-08-26T02:07:48.025Z,20.89
2022-08-26T02:10:15.673Z,20.83
2022-08-26T02:12:43.741Z,20.81
2022-08-26T02:15:12.816Z,20.82
2022-08-26T02:17:46.096Z,20.81
2022-08-26T02:20:16.087Z,20.72
2022-08-26T02:22:45.137Z,20.79
2022-08-26T02:25:25.926Z,20.85
2022-08-26T02:27:53.389Z,20.86
2022-08-26T02:30:47.254Z,20.86
2022-08-26T02:33:14.760Z,20.83
2022-08-26T02:35:41.810Z,20.86
2022-08-26T02:38:11.254Z,20.86
2022-08-26T02:40:41.311Z,20.87
2022-08-26T02:43:09.731Z,20.86
2022-08-26T02:45:37.111Z,20.77
2022-08-26T02:48:21.334Z,20.78
2022-08-26T02:50:49.465Z,20.76
2022-08-26T02:53:16.805Z,20.82
2022-08-26T02:55:51.812Z,20.84
2022-08-26T02:58:18.933Z,20.89
2022-08-26T03:00:52.599Z,20.87
2022-08-26T03:03:20.834Z,20.88
2022-08-26T03:05:51.339Z,20.68
2022-08-26T03:08:18.199Z,20.75
2022-08-26T03:10:46.583Z,20.63
2022-08-26T03:13:15.024Z,20.62
2022-08-26T03:15:41.847Z,20.51
2022-08-26T03:18:09.730Z,20.55
2022-08-26T03:20:37.148Z,20.49
2022-08-26T03:23:04.057Z,20.46
2022-08-26T03:25:31.390Z,20.40
2022-08-26T03:27:59.415Z,20.40
2022-08-26T03:30:45.053Z,20.40
2022-08-26T03:33:13.994Z,20.35
2022-08-26T03:35:43.601Z,20.33
2022-08-26T03:38:11.307Z,20.19
2022-08-26T03:40:39.802Z,20.31
2022-08-26T03:43:09.610Z,20.19
2022-08-26T03:45:37.209Z,20.29
2022-08-26T03:48:05.483Z,20.26
2022-08-26T03:50:34.329Z,20.23
2022-08-26T03:53:04.098Z,20.24
2022-08-26T03:55:35.226Z,20.24
2022-08-26T03:58:02.298Z,20.19
2022-08-26T04:00:32.558Z,20.17
2022-08-26T04:03:01.400Z,20.10
2022-08-26T04:05:28.470Z,20.20
2022-08-26T04:07:55.395Z,20.23
2022-08-26T04:10:29.153Z,20.13
2022-08-26T04:12:58.835Z,20.23
2022-08-26T04:15:27.184Z,20.18
2022-08-26T04:17:56.049Z,20.19
2022-08-26T04:20:24.710Z,20.15
2022-08-26T04:22:52.467Z,20.20
2022-08-26T04:25:20.641Z,20.16
2022-08-26T04:27:48.281Z,20.20
2022-08-26T04:30:16.688Z,20.17
2022-08-26T04:32:44.209Z,20.23
2022-08-26T04:35:11.248Z,20.25
2022-08-26T04:37:38.216Z,20.31
2022-08-26T04:40:06.543Z,20.34
2022-08-26T04:42:33.447Z,20.43
2022-08-26T04:45:01.358Z,20.47
2022-08-26T04:47:32.609Z,20.45
2022-08-26T04:50:00.079Z,20.60
2022-08-26T04:52:29.071Z,20.62
2022-08-26T04:54:57.923Z,20.67
2022-08-26T04:57:24.748Z,20.76
2022-08-26T04:59:51.571Z,20.76
2022-08-26T05:02:19.533Z,20.92
2022-08-26T05:04:46.307Z,20.98
2022-08-26T05:07:13.179Z,21.01
2022-08-26T05:09:40.739Z,21.09
2022-08-26T05:12:08.068Z,21.12
2022-08-26T05:14:36.262Z,21.14
2022-08-26T05:17:03.801Z,21.27
2022-08-26T05:19:31.656Z,21.34
2022-08-26T05:21:59.668Z,21.37
2022-08-26T05:24:26.551Z,21.46
2022-08-26T05:26:54.403Z,21.56
2022-08-26T05:29:23.676Z,21.58
2022-08-26T05:31:52.512Z,21.61
2022-08-26T05:34:20.819Z,21.75
2022-08-26T05:36:48.004Z,21.76
2022-08-26T05:39:15.027Z,21.94
2022-08-26T05:41:44.786Z,22.02
2022-08-26T05:44:14.904Z,22.10
2022-08-26T05:46:44.783Z,22.19
2022-08-26T05:49:13.766Z,22.26
2022-08-26T05:51:42.143Z,22.32
2022-08-26T05:54:10.499Z,22.38
2022-08-26T05:56:38.639Z,22.51
2022-08-26T05:59:06.796Z,22.58
2022-08-26T06:01:43.264Z,22.67
2022-08-26T06:04:11.435Z,22.75
2022-08-26T06:06:41.661Z,22.73
2022-08-26T06:09:11.174Z,22.91
2022-08-26T06:11:38.996Z,23.00
2022-08-26T06:14:07.982Z,23.07
2022-08-26T06:16:38.728Z,23.16
2022-08-26T06:19:11.291Z,23.23
2022-08-26T06:21:41.272Z,23.31
2022-08-26T06:24:29.929Z,23.37
2022-08-26T06:27:01.236Z,23.46
2022-08-26T06:29:31.157Z,23.52
2022-08-26T06:31:58.675Z,23.59
2022-08-26T06:34:29.834Z,23.63
2022-08-26T06:36:59.883Z,23.73
2022-08-26T06:39:30.768Z,23.82
2022-08-26T06:42:02.665Z,23.91
2022-08-26T06:44:30.309Z,23.94
2022-08-26T06:46:57.364Z,24.06
2022-08-26T06:49:26.720Z,24.15
2022-08-26T06:51:59.571Z,24.24
2022-08-26T06:54:31.707Z,24.23
2022-08-26T06:56:59.347Z,24.43
2022-08-26T06:59:26.231Z,24.50
2022-08-26T07:01:54.802Z,24.63
2022-08-26T07:04:23.151Z,24.72
2022-08-26T07:06:52.730Z,24.84
2022-08-26T07:09:22.677Z,25.01
2022-08-26T07:11:51.439Z,25.16
2022-08-26T07:14:19.449Z,25.25
2022-08-26T07:16:52.247Z,25.34
2022-08-26T07:19:28.522Z,25.48
2022-08-26T07:21:57.810Z,25.57
2022-08-26T07:24:24.647Z,25.65
2022-08-26T07:26:59.655Z,25.73
2022-08-26T07:29:26.478Z,25.82
2022-08-26T07:31:53.709Z,25.93
2022-08-26T07:34:24.123Z,26.10
2022-08-26T07:36:51.704Z,26.25
2022-08-26T07:39:19.561Z,26.49
2022-08-26T07:41:47.400Z,26.67
2022-08-26T07:44:15.581Z,26.76
2022-08-26T07:46:44.293Z,26.85
2022-08-26T07:49:24.439Z,27.02
2022-08-26T07:51:54.155Z,27.12
2022-08-26T07:54:26.683Z,27.25
2022-08-26T07:56:54.674Z,27.41
2022-08-26T07:59:23.723Z,27.29
2022-08-26T08:01:51.009Z,27.55
2022-08-26T08:04:25.519Z,27.54
2022-08-26T08:06:54.092Z,27.55
2022-08-26T08:09:22.403Z,27.79
2022-08-26T08:11:50.014Z,27.87
2022-08-26T08:14:18.707Z,27.99
2022-08-26T08:16:51.174Z,28.15
2022-08-26T08:19:23.132Z,28.32
2022-08-26T08:21:50.906Z,28.53
2022-08-26T08:24:18.156Z,28.65
2022-08-26T08:26:46.091Z,29.13
2022-08-26T08:29:13.027Z,29.58
2022-08-26T08:31:58.499Z,29.93
2022-08-26T08:34:28.867Z,30.67
2022-08-26T08:36:57.531Z,31.31
2022-08-26T08:39:26.343Z,31.36
2022-08-26T08:42:28.509Z,31.62
2022-08-26T08:44:58.609Z,32.42
2022-08-26T08:47:36.933Z,32.41
2022-08-26T08:50:11.656Z,32.93
2022-08-26T08:52:44.000Z,32.89
2022-08-26T08:55:18.123Z,32.96
2022-08-26T08:57:49.332Z,33.34
2022-08-26T09:00:30.199Z,33.29
2022-08-26T09:03:03.574Z,33.08
2022-08-26T09:05:40.194Z,33.40
2022-08-26T09:08:23.239Z,33.06
2022-08-26T09:10:59.639Z,33.15
2022-08-26T09:13:28.482Z,33.44
2022-08-26T09:16:04.512Z,34.02
2022-08-26T09:18:56.418Z,34.46
2022-08-26T09:21:25.091Z,34.41
2022-08-26T09:23:55.730Z,34.31
2022-08-26T09:26:45.764Z,34.72
2022-08-26T09:29:30.898Z,34.75
2022-08-26T09:32:24.406Z,35.30
2022-08-26T09:34:57.352Z,35.84
2022-08-26T09:37:38.184Z,35.77
2022-08-26T09:40:19.386Z,36.06
2022-08-26T09:42:48.115Z,36.02
2022-08-26T09:45:15.587Z,35.92
2022-08-26T09:47:47.923Z,36.31
2022-08-26T09:50:36.466Z,36.06
2022-08-26T09:53:30.366Z,36.38
2022-08-26T09:56:23.941Z,36.31
2022-08-26T09:58:53.300Z,36.89
2022-08-26T10:01:23.139Z,36.74
2022-08-26T10:03:51.437Z,36.60
2022-08-26T10:06:21.189Z,36.15
2022-08-26T10:08:52.523Z,36.35
2022-08-26T10:11:47.631Z,37.32
2022-08-26T10:14:25.092Z,36.97
2022-08-26T10:17:09.246Z,37.42
2022-08-26T10:19:55.917Z,37.47
2022-08-26T10:22:34.711Z,37.84
2022-08-26T10:25:05.521Z,37.68
2022-08-26T10:28:20.118Z,38.55
2022-08-26T10:30:59.634Z,38.85
2022-08-26T10:33:26.711Z,39.04
2022-08-26T10:36:05.515Z,39.28
2022-08-26T10:38:37.933Z,37.61
2022-08-26T10:41:13.117Z,38.42
2022-08-26T10:43:51.667Z,38.49
2022-08-26T10:46:23.894Z,38.85
2022-08-26T10:49:10.641Z,39.08
2022-08-26T10:52:03.894Z,39.61
2022-08-26T10:54:54.962Z,38.49
2022-08-26T10:57:27.978Z,38.89
2022-08-26T11:00:31.388Z,38.47
2022-08-26T11:03:22.076Z,39.32
2022-08-26T11:06:24.880Z,38.60
2022-08-26T11:08:53.129Z,39.03
2022-08-26T11:11:41.219Z,38.96
2022-08-26T11:14:28.687Z,38.83
2022-08-26T11:17:00.195Z,40.03
2022-08-26T11:19:59.372Z,39.85
2022-08-26T11:22:31.230Z,40.54
2022-08-26T11:24:57.955Z,40.99
2022-08-26T11:27:36.715Z,40.27
2022-08-26T11:30:35.898Z,40.12
2022-08-26T11:33:02.875Z,40.93
2022-08-26T11:35:34.579Z,41.54
2022-08-26T11:38:25.213Z,40.88
2022-08-26T11:41:21.025Z,41.32
2022-08-26T11:43:50.456Z,41.20
2022-08-26T11:46:26.855Z,41.28
2022-08-26T11:49:01.784Z,41.21
2022-08-26T11:51:29.345Z,40.25
2022-08-26T11:54:13.807Z,40.80
2022-08-26T11:56:45.839Z,41.01
2022-08-26T11:59:18.848Z,40.70
2022-08-26T12:01:50.398Z,40.82
2022-08-26T12:04:33.419Z,41.07
2022-08-26T12:07:02.368Z,41.86
2022-08-26T12:09:35.986Z,41.34
2022-08-26T12:12:27.119Z,41.85
2022-08-26T12:15:19.037Z,41.94
2022-08-26T12:17:51.671Z,41.67
2022-08-26T12:20:31.280Z,40.77
2022-08-26T12:23:00.193Z,41.67
2022-08-26T12:25:28.133Z,41.96
2022-08-26T12:28:05.602Z,41.88
2022-08-26T12:30:32.510Z,42.40
2022-08-26T12:33:22.359Z,42.31
2022-08-26T12:35:54.786Z,41.79
2022-08-26T12:38:25.467Z,41.82
2022-08-26T12:40:54.072Z,42.67
2022-08-26T12:43:44.012Z,42.56
2022-08-26T12:46:18.154Z,42.24
2022-08-26T12:48:49.681Z,42.51
2022-08-26T12:51:28.378Z,42.87
2022-08-26T12:53:56.248Z,42.67
2022-08-26T12:56:31.155Z,42.10
2022-08-26T12:59:02.899Z,42.19
2022-08-26T13:01:40.713Z,42.75
2022-08-26T13:04:07.757Z,42.87
2022-08-26T13:06:35.105Z,42.68
2022-08-26T13:09:24.976Z,43.30
2022-08-26T13:11:54.639Z,42.58
2022-08-26T13:14:24.053Z,42.25
2022-08-26T13:16:51.891Z,42.68
2022-08-26T13:19:22.071Z,43.01
2022-08-26T13:21:53.019Z,43.20
2022-08-26T13:24:33.208Z,42.57
2022-08-26T13:27:01.475Z,42.50
2022-08-26T13:29:28.671Z,42.87
2022-08-26T13:31:55.927Z,43.17
2022-08-26T13:34:24.699Z,43.05
2022-08-26T13:36:54.256Z,42.85
2022-08-26T13:39:22.417Z,42.97
2022-08-26T13:41:49.708Z,42.32
2022-08-26T13:44:16.681Z,42.77
2022-08-26T13:49:15.700Z,41.73
2022-08-26T13:51:42.665Z,42.66
2022-08-26T13:54:09.612Z,43.07
2022-08-26T13:56:36.820Z,42.37
2022-08-26T13:59:04.614Z,41.86
2022-08-26T14:01:32.685Z,41.87
2022-08-26T14:03:59.626Z,41.96
2022-08-26T14:06:26.852Z,42.07
2022-08-26T14:08:53.795Z,42.27
2022-08-26T14:11:21.522Z,42.53
2022-08-26T14:13:48.496Z,42.34
2022-08-26T14:16:31.576Z,42.27
2022-08-26T14:19:01.362Z,42.66
2022-08-26T14:21:33.926Z,42.27
2022-08-26T14:24:01.186Z,42.29
2022-08-26T14:26:29.789Z,41.39
2022-08-26T14:28:59.858Z,40.49
2022-08-26T14:31:29.405Z,40.26
2022-08-26T14:34:03.821Z,40.62
2022-08-26T14:36:33.730Z,41.50
2022-08-26T14:39:12.609Z,41.46
2022-08-26T14:41:53.738Z,39.73
2022-08-26T14:44:25.943Z,39.44
2022-08-26T14:46:54.732Z,39.48
2022-08-26T14:49:24.466Z,40.04
2022-08-26T14:51:51.387Z,39.74
2022-08-26T14:54:19.896Z,40.91
2022-08-26T14:57:00.784Z,40.63
2022-08-26T14:59:35.268Z,39.87
2022-08-26T15:02:03.158Z,39.23
2022-08-26T15:04:30.157Z,39.04
2022-08-26T15:06:59.012Z,39.07
2022-08-26T15:09:27.627Z,40.20
2022-08-26T15:11:54.671Z,40.12
2022-08-26T15:14:22.807Z,40.45
2022-08-26T15:16:52.239Z,39.54
2022-08-26T15:19:20.397Z,39.57
2022-08-26T15:21:47.807Z,39.72
2022-08-26T15:24:16.647Z,39.70
2022-08-26T15:26:44.461Z,39.51
2022-08-26T15:29:11.512Z,39.28
2022-08-26T15:31:38.537Z,38.74
2022-08-26T15:34:10.190Z,38.18
2022-08-26T15:36:39.478Z,37.90
2022-08-26T15:39:07.969Z,37.81
2022-08-26T15:41:37.274Z,37.70
2022-08-26T15:44:06.781Z,37.93
2022-08-26T15:46:34.428Z,37.64
2022-08-26T15:49:02.551Z,37.48
2022-08-26T15:51:32.783Z,37.69
2022-08-26T15:54:01.626Z,37.09
2022-08-26T15:56:32.568Z,36.67
2022-08-26T15:59:02.243Z,36.26
2022-08-26T16:01:32.105Z,36.11
2022-08-26T16:03:59.667Z,35.75
2022-08-26T16:06:30.358Z,35.37
2022-08-26T16:08:57.820Z,35.10
2022-08-26T16:11:25.346Z,34.85
2022-08-26T16:13:52.544Z,34.74
2022-08-26T16:16:19.889Z,34.47
2022-08-26T16:18:47.604Z,34.42
2022-08-26T16:21:16.198Z,34.29
2022-08-26T16:23:45.290Z,34.27
2022-08-26T16:26:19.336Z,34.24
2022-08-26T16:28:46.914Z,34.28
2022-08-26T16:31:14.756Z,34.06
2022-08-26T16:33:41.977Z,33.92
2022-08-26T16:36:09.745Z,33.83
2022-08-26T16:38:37.721Z,33.65
2022-08-26T16:41:05.980Z,33.45
2022-08-26T16:43:33.154Z,33.37
2022-08-26T16:46:00.100Z,33.19
2022-08-26T16:48:27.557Z,32.85
2022-08-26T16:50:55.625Z,32.77
2022-08-26T16:53:23.347Z,32.60
2022-08-26T16:55:50.801Z,32.46
2022-08-26T16:58:18.660Z,32.38
2022-08-26T17:00:46.005Z,32.19
2022-08-26T17:03:13.084Z,32.05
2022-08-26T17:05:40.419Z,31.93
2022-08-26T17:08:07.878Z,31.87
2022-08-26T17:10:34.967Z,31.79
2022-08-26T17:13:02.645Z,31.62
2022-08-26T17:15:30.125Z,31.32
2022-08-26T17:17:57.486Z,31.15
2022-08-26T17:20:25.482Z,31.00
2022-08-26T17:22:53.957Z,30.88
2022-08-26T17:25:28.491Z,30.70
2022-08-26T17:30:27.071Z,30.52
2022-08-26T17:32:56.805Z,30.26
2022-08-26T17:35:23.763Z,30.01
2022-08-26T17:37:51.217Z,29.79
2022-08-26T17:40:21.620Z,29.65
2022-08-26T17:42:48.881Z,29.68
2022-08-26T17:45:16.334Z,29.59
2022-08-26T17:47:43.731Z,29.48
2022-08-26T17:50:14.522Z,29.35
2022-08-26T17:52:41.930Z,29.16
2022-08-26T17:55:10.493Z,28.88
2022-08-26T17:57:40.600Z,28.78
2022-08-26T18:00:13.019Z,28.60
2022-08-26T18:02:40.243Z,28.48
2022-08-26T18:05:08.712Z,28.37
2022-08-26T18:07:43.902Z,28.30
2022-08-26T18:10:13.837Z,28.21
2022-08-26T18:12:41.751Z,28.17
2022-08-26T18:15:10.691Z,28.09
2022-08-26T18:17:41.666Z,28.10
2022-08-26T18:20:15.252Z,27.98
2022-08-26T18:22:42.522Z,27.83
2022-08-26T18:25:09.703Z,27.86
2022-08-26T18:27:37.193Z,27.78
2022-08-26T18:30:15.878Z,27.74
2022-08-26T18:32:43.391Z,27.61
2022-08-26T18:35:11.546Z,27.59
2022-08-26T18:37:38.831Z,27.50
2022-08-26T18:40:08.155Z,27.36
2022-08-26T18:42:35.408Z,27.12
2022-08-26T18:45:03.322Z,27.01
2022-08-26T18:47:31.718Z,26.86
2022-08-26T18:49:58.655Z,26.70
2022-08-26T18:52:25.623Z,26.56
2022-08-26T18:54:52.743Z,26.34
2022-08-26T18:57:19.896Z,26.30
2022-08-26T18:59:46.799Z,26.27
2022-08-26T19:02:13.944Z,26.05
2022-08-26T19:04:41.034Z,25.87
2022-08-26T19:07:08.351Z,25.96
2022-08-26T19:09:36.236Z,25.91
2022-08-26T19:12:04.351Z,25.79
2022-08-26T19:14:32.773Z,25.55
2022-08-26T19:17:01.533Z,25.58
2022-08-26T19:19:29.057Z,25.62
2022-08-26T19:21:56.530Z,25.63
2022-08-26T19:24:26.018Z,25.55
2022-08-26T19:26:59.130Z,25.63
2022-08-26T19:29:30.239Z,25.54
2022-08-26T19:31:57.839Z,25.64
2022-08-26T19:34:25.241Z,25.59
2022-08-26T19:36:54.943Z,25.70
2022-08-26T19:39:22.123Z,25.50
2022-08-26T19:41:49.513Z,25.45
2022-08-26T19:44:37.557Z,25.39
2022-08-26T19:47:07.577Z,25.37
2022-08-26T19:49:35.336Z,25.20
2022-08-26T19:52:03.460Z,25.15
2022-08-26T19:54:30.738Z,25.10
2022-08-26T19:56:57.760Z,24.95
2022-08-26T19:59:24.922Z,24.88
2022-08-26T20:02:01.447Z,24.89
2022-08-26T20:04:38.187Z,24.88
2022-08-26T20:07:06.002Z,24.89
2022-08-26T20:09:48.304Z,24.83
2022-08-26T20:12:16.253Z,24.79
2022-08-26T20:14:46.286Z,24.83
2022-08-26T20:17:14.714Z,24.80
2022-08-26T20:20:00.527Z,24.79
2022-08-26T20:22:28.505Z,24.72
2022-08-26T20:24:55.827Z,24.77
2022-08-26T20:27:38.096Z,24.78
2022-08-26T20:30:07.740Z,24.75
2022-08-26T20:32:35.671Z,24.63
2022-08-26T20:35:04.371Z,24.56
2022-08-26T20:37:31.516Z,24.52
2022-08-26T20:39:58.836Z,24.52
2022-08-26T20:42:26.631Z,24.51
2022-08-26T20:44:54.587Z,24.52
2022-08-26T20:47:22.665Z,24.52
2022-08-26T20:49:52.234Z,24.45
2022-08-26T20:52:19.878Z,24.45
2022-08-26T20:54:46.801Z,24.32
2022-08-26T20:57:14.693Z,24.31
2022-08-26T20:59:41.623Z,24.25
2022-08-26T21:02:09.224Z,24.18
2022-08-26T21:04:36.102Z,24.33
2022-08-26T21:07:02.991Z,24.37
2022-08-26T21:09:30.094Z,24.45
2022-08-26T21:11:57.713Z,24.43
2022-08-26T21:14:25.691Z,24.42
2022-08-26T21:16:53.385Z,24.38
2022-08-26T21:19:20.390Z,24.39
2022-08-26T21:21:48.973Z,24.39
2022-08-26T21:24:16.959Z,24.35
2022-08-26T21:26:43.937Z,24.38
2022-08-26T21:29:10.953Z,24.40
2022-08-26T21:31:42.156Z,24.36
2022-08-26T21:34:12.669Z,24.35
2022-08-26T21:36:41.169Z,24.27
2022-08-26T21:39:11.801Z,24.18
2022-08-26T21:41:40.374Z,24.15
2022-08-26T21:44:07.729Z,24.13
2022-08-26T21:46:37.302Z,24.07
2022-08-26T21:49:08.611Z,24.03
2022-08-26T21:51:38.704Z,23.97
2022-08-26T21:54:10.776Z,23.90
2022-08-26T21:56:42.159Z,23.86
2022-08-26T21:59:09.473Z,23.81
2022-08-26T22:01:37.897Z,23.77
2022-08-26T22:04:07.564Z,23.70
2022-08-26T22:06:40.627Z,23.63
2022-08-26T22:09:07.777Z,23.67
2022-08-26T22:11:34.778Z,23.58
2022-08-26T22:14:01.697Z,23.50
2022-08-26T22:16:28.885Z,23.41
2022-08-26T22:18:56.001Z,23.37
2022-08-26T22:21:25.218Z,23.34
2022-08-26T22:23:58.017Z,23.32
2022-08-26T22:26:29.108Z,23.27
2022-08-26T22:28:58.959Z,23.22
2022-08-26T22:31:35.300Z,23.19
2022-08-26T22:34:11.070Z,23.13
2022-08-26T22:36:43.984Z,23.10
2022-08-26T22:39:17.222Z,23.02
2022-08-26T22:41:45.366Z,23.00
2022-08-26T22:44:12.576Z,22.95
2022-08-26T22:46:40.631Z,22.91
2022-08-26T22:49:09.728Z,22.71
2022-08-26T22:51:36.765Z,22.69
2022-08-26T22:54:03.906Z,22.66
2022-08-26T22:56:30.719Z,22.60
2022-08-26T22:58:57.709Z,22.59
2022-08-26T23:01:24.566Z,22.55
2022-08-26T23:03:51.440Z,22.49
2022-08-26T23:06:18.277Z,22.34
2022-08-26T23:08:46.470Z,22.24
2022-08-26T23:11:14.945Z,22.30
2022-08-26T23:13:42.473Z,22.25
2022-08-26T23:16:11.372Z,22.16
2022-08-26T23:18:39.136Z,22.08
2022-08-26T23:21:06.599Z,22.03
2022-08-26T23:23:33.702Z,22.06
2022-08-26T23:26:03.333Z,22.05
2022-08-26T23:28:33.004Z,22.03
2022-08-26T23:31:00.233Z,22.02
2022-08-26T23:33:47.155Z,21.98
2022-08-26T23:36:17.871Z,21.88
2022-08-26T23:38:52.361Z,21.81
2022-08-26T23:41:22.484Z,21.76
2022-08-26T23:43:50.053Z,21.76
2022-08-26T23:46:17.687Z,21.73
2022-08-26T23:48:44.696Z,21.67
2022-08-26T23:51:30.191Z,21.69
2022-08-26T23:53:59.534Z,21.64
2022-08-26T23:56:26.851Z,21.57
2022-08-26T23:58:54.212Z,21.56
